createdAt,value
2017-05-09T00:00:08.756Z,57.54
2017-05-09T00:00:34.854Z,57.45
2017-05-09T00:01:00.968Z,57.54
2017-05-09T00:01:27.070Z,57.23
2017-05-09T00:01:53.173Z,57.45
2017-05-09T00:02:19.260Z,57.35
2017-05-09T00:02:45.384Z,57.64
2017-05-09T00:03:11.514Z,57.45
2017-05-09T00:03:37.675Z,57.35
2017-05-09T00:04:03.831Z,57.42
2017-05-09T00:04:29.945Z,57.32
2017-05-09T00:04:56.096Z,57.45
2017-05-09T00:05:22.227Z,57.51
2017-05-09T00:05:48.311Z,57.73
2017-05-09T00:06:14.456Z,58.02
2017-05-09T00:06:40.558Z,58.11
2017-05-09T00:07:06.649Z,58.18
2017-05-09T00:07:32.768Z,57.92
2017-05-09T00:07:58.901Z,57.92
2017-05-09T00:08:25.026Z,57.99
2017-05-09T00:08:51.109Z,57.99
2017-05-09T00:09:17.262Z,57.92
2017-05-09T00:09:43.433Z,58.08
2017-05-09T00:10:09.595Z,58.47
2017-05-09T00:10:35.684Z,58.47
2017-05-09T00:11:01.827Z,58.18
2017-05-09T00:11:27.932Z,58.56
2017-05-09T00:11:54.026Z,58.18
2017-05-09T00:12:20.114Z,58.56
2017-05-09T00:12:46.252Z,58.28
2017-05-09T00:13:12.344Z,58.47
2017-05-09T00:13:38.484Z,58.37
2017-05-09T00:14:04.673Z,59.23
2017-05-09T00:14:30.737Z,59.03
2017-05-09T00:14:56.835Z,59.23
2017-05-09T00:15:22.954Z,59.03
2017-05-09T00:15:49.066Z,58.94
2017-05-09T00:16:15.201Z,59.13
2017-05-09T00:16:41.295Z,59.23
2017-05-09T00:17:07.384Z,59.13
2017-05-09T00:17:33.517Z,59.23
2017-05-09T00:17:59.668Z,59.03
2017-05-09T00:18:25.804Z,59.23
2017-05-09T00:18:51.987Z,59.03
2017-05-09T00:19:18.093Z,59.32
2017-05-09T00:19:44.179Z,59.7
2017-05-09T00:20:10.322Z,59.51
2017-05-09T00:20:36.440Z,60.18
2017-05-09T00:21:02.598Z,59.89
2017-05-09T00:21:28.724Z,59.8
2017-05-09T00:21:54.812Z,59.99
2017-05-09T00:22:20.942Z,60.08
2017-05-09T00:22:47.128Z,60.08
2017-05-09T00:23:13.238Z,59.89
2017-05-09T00:23:39.338Z,59.8
2017-05-09T00:24:05.525Z,59.99
2017-05-09T00:24:31.637Z,59.99
2017-05-09T00:24:57.733Z,59.51
2017-05-09T00:25:23.838Z,60.18
2017-05-09T00:25:49.930Z,59.89
2017-05-09T00:26:16.017Z,60.08
2017-05-09T00:26:42.153Z,59.99
2017-05-09T00:27:08.275Z,60.08
2017-05-09T00:27:34.389Z,60.08
2017-05-09T00:28:00.547Z,60.27
2017-05-09T00:28:26.702Z,60.27
2017-05-09T00:28:52.843Z,60.08
2017-05-09T00:29:18.965Z,60.27
2017-05-09T00:29:45.069Z,60.75
2017-05-09T00:30:11.154Z,60.85
2017-05-09T00:30:37.254Z,60.75
2017-05-09T00:31:03.355Z,60.56
2017-05-09T00:31:29.444Z,60.56
2017-05-09T00:31:55.574Z,60.75
2017-05-09T00:32:21.686Z,60.46
2017-05-09T00:32:47.841Z,60.75
2017-05-09T00:33:14.000Z,60.85
2017-05-09T00:33:40.111Z,60.75
2017-05-09T00:34:06.230Z,60.66
2017-05-09T00:34:32.334Z,60.46
2017-05-09T00:34:58.448Z,60.66
2017-05-09T00:35:24.572Z,60.56
2017-05-09T00:35:50.674Z,60.46
2017-05-09T00:36:16.821Z,60.66
2017-05-09T00:36:42.908Z,61.22
2017-05-09T00:37:09.037Z,61.51
2017-05-09T00:37:35.137Z,61.04
2017-05-09T00:38:01.267Z,60.85
2017-05-09T00:38:27.404Z,60.85
2017-05-09T00:38:53.499Z,61.04
2017-05-09T00:39:19.659Z,61.32
2017-05-09T00:39:45.777Z,61.42
2017-05-09T00:40:11.892Z,61.7
2017-05-09T00:40:38.000Z,61.61
2017-05-09T00:41:04.122Z,61.61
2017-05-09T00:41:30.255Z,61.7
2017-05-09T00:41:56.441Z,61.8
2017-05-09T00:42:22.566Z,62.08
2017-05-09T00:42:48.689Z,62.08
2017-05-09T00:43:14.806Z,61.7
2017-05-09T00:43:40.924Z,61.42
2017-05-09T00:44:07.050Z,61.8
2017-05-09T00:44:33.169Z,61.8
2017-05-09T00:44:59.256Z,61.8
2017-05-09T00:45:25.386Z,61.7
2017-05-09T00:45:51.541Z,61.99
2017-05-09T00:46:17.629Z,61.7
2017-05-09T00:46:43.731Z,61.61
2017-05-09T00:47:09.865Z,61.7
2017-05-09T00:47:35.952Z,61.58
2017-05-09T00:48:02.096Z,61.7
2017-05-09T00:48:28.226Z,62.18
2017-05-09T00:48:54.339Z,62.24
2017-05-09T00:49:20.459Z,62.18
2017-05-09T00:49:46.619Z,62.15
2017-05-09T00:50:12.739Z,61.8
2017-05-09T00:50:38.853Z,62.05
2017-05-09T00:51:04.961Z,62.05
2017-05-09T00:51:31.084Z,62.18
2017-05-09T00:51:57.198Z,62.08
2017-05-09T00:52:23.301Z,61.9
2017-05-09T00:52:49.453Z,62.05
2017-05-09T00:53:15.589Z,61.99
2017-05-09T00:53:41.737Z,62.24
2017-05-09T00:54:07.879Z,62.18
2017-05-09T00:54:34.064Z,62.27
2017-05-09T00:55:00.187Z,62.18
2017-05-09T00:55:26.276Z,61.96
2017-05-09T00:55:52.408Z,62.24
2017-05-09T00:56:18.477Z,61.67
2017-05-09T00:56:44.590Z,61.9
2017-05-09T00:57:10.717Z,61.8
2017-05-09T00:57:36.819Z,61.8
2017-05-09T00:58:03.014Z,61.9
2017-05-09T00:58:29.106Z,61.86
2017-05-09T00:58:55.265Z,61.86
2017-05-09T00:59:21.378Z,62.34
2017-05-09T00:59:47.505Z,62.53
2017-05-09T01:00:13.618Z,62.34
2017-05-09T01:00:39.748Z,62.53
2017-05-09T01:01:05.881Z,62.53
2017-05-09T01:01:31.966Z,62.62
2017-05-09T01:01:58.131Z,62.34
2017-05-09T01:02:24.199Z,63.01
2017-05-09T01:02:50.292Z,62.81
2017-05-09T01:03:16.443Z,62.72
2017-05-09T01:03:42.583Z,62.72
2017-05-09T01:04:08.700Z,62.62
2017-05-09T01:04:34.811Z,62.72
2017-05-09T01:05:00.936Z,62.81
2017-05-09T01:05:27.047Z,62.34
2017-05-09T01:05:53.179Z,62.53
2017-05-09T01:06:19.282Z,62.72
2017-05-09T01:06:45.398Z,62.53
2017-05-09T01:07:11.557Z,62.72
2017-05-09T01:07:37.675Z,62.72
2017-05-09T01:08:03.812Z,62.91
2017-05-09T01:08:29.945Z,62.53
2017-05-09T01:08:56.038Z,62.81
2017-05-09T01:09:22.168Z,62.81
2017-05-09T01:09:48.322Z,62.53
2017-05-09T01:10:14.420Z,62.91
2017-05-09T01:10:40.571Z,63.39
2017-05-09T01:11:06.646Z,62.72
2017-05-09T01:11:32.774Z,63.29
2017-05-09T01:11:58.861Z,63.39
2017-05-09T01:12:24.959Z,63.1
2017-05-09T01:12:51.063Z,63.2
2017-05-09T01:13:17.176Z,63.48
2017-05-09T01:13:43.293Z,63.2
2017-05-09T01:14:09.451Z,63.01
2017-05-09T01:14:35.541Z,63.1
2017-05-09T01:15:01.753Z,63.29
2017-05-09T01:15:27.862Z,63.2
2017-05-09T01:15:53.984Z,63.39
2017-05-09T01:16:20.092Z,63.76
2017-05-09T01:16:46.180Z,63.76
2017-05-09T01:17:12.299Z,63.86
2017-05-09T01:17:38.464Z,63.57
2017-05-09T01:18:04.578Z,63.48
2017-05-09T01:18:30.695Z,63.48
2017-05-09T01:18:56.831Z,63.48
2017-05-09T01:19:23.002Z,63.48
2017-05-09T01:19:49.116Z,63.57
2017-05-09T01:20:15.252Z,63.39
2017-05-09T01:20:41.319Z,63.39
2017-05-09T01:21:07.429Z,63.39
2017-05-09T01:21:33.531Z,63.48
2017-05-09T01:21:59.619Z,63.67
2017-05-09T01:22:25.753Z,63.67
2017-05-09T01:22:51.874Z,63.57
2017-05-09T01:23:17.962Z,63.39
2017-05-09T01:23:44.094Z,63.96
2017-05-09T01:24:10.219Z,63.39
2017-05-09T01:24:36.333Z,64.05
2017-05-09T01:25:02.489Z,63.67
2017-05-09T01:25:28.593Z,63.57
2017-05-09T01:25:54.729Z,63.48
2017-05-09T01:26:20.828Z,63.2
2017-05-09T01:26:46.960Z,63.57
2017-05-09T01:27:13.097Z,63.29
2017-05-09T01:27:39.174Z,63.39
2017-05-09T01:28:05.339Z,63.48
2017-05-09T01:28:31.540Z,63.48
2017-05-09T01:28:57.673Z,63.67
2017-05-09T01:29:23.758Z,63.67
2017-05-09T01:29:49.914Z,63.57
2017-05-09T01:30:16.071Z,63.48
2017-05-09T01:30:42.186Z,63.86
2017-05-09T01:31:08.283Z,63.76
2017-05-09T01:31:34.384Z,63.39
2017-05-09T01:32:00.473Z,63.29
2017-05-09T01:32:26.563Z,63.39
2017-05-09T01:32:52.723Z,63.57
2017-05-09T01:33:18.820Z,63.29
2017-05-09T01:33:44.925Z,63.57
2017-05-09T01:34:11.012Z,63.57
2017-05-09T01:34:37.105Z,63.39
2017-05-09T01:35:03.238Z,63.76
2017-05-09T01:35:29.356Z,63.76
2017-05-09T01:35:55.442Z,64.43
2017-05-09T01:36:21.549Z,64.34
2017-05-09T01:36:47.642Z,64.15
2017-05-09T01:37:13.733Z,63.96
2017-05-09T01:37:39.866Z,64.24
2017-05-09T01:38:05.967Z,65
2017-05-09T01:38:32.115Z,64.62
2017-05-09T01:38:58.258Z,64.53
2017-05-09T01:39:24.397Z,64.72
2017-05-09T01:39:50.528Z,64.53
2017-05-09T01:40:16.622Z,64.72
2017-05-09T01:40:42.735Z,64.72
2017-05-09T01:41:08.898Z,64.72
2017-05-09T01:41:35.073Z,64.72
2017-05-09T01:42:01.162Z,64.53
2017-05-09T01:42:27.313Z,64.53
2017-05-09T01:42:53.444Z,64.34
2017-05-09T01:43:19.553Z,64.72
2017-05-09T01:43:45.677Z,65.29
2017-05-09T01:44:11.795Z,65.48
2017-05-09T01:44:37.956Z,64.9
2017-05-09T01:45:04.082Z,65
2017-05-09T01:45:30.218Z,64.9
2017-05-09T01:45:56.350Z,64.72
2017-05-09T01:46:22.479Z,64.81
2017-05-09T01:46:48.565Z,64.81
2017-05-09T01:47:14.662Z,64.9
2017-05-09T01:47:40.794Z,65.1
2017-05-09T01:48:06.909Z,65.58
2017-05-09T01:48:33.029Z,65.1
2017-05-09T01:48:59.134Z,64.81
2017-05-09T01:49:25.277Z,64.62
2017-05-09T01:49:51.378Z,64.53
2017-05-09T01:50:17.464Z,64.9
2017-05-09T01:50:43.564Z,65.29
2017-05-09T01:51:09.702Z,65.16
2017-05-09T01:51:35.781Z,65
2017-05-09T01:52:01.900Z,65.1
2017-05-09T01:52:28.031Z,65.38
2017-05-09T01:52:54.205Z,65.48
2017-05-09T01:53:20.314Z,65.54
2017-05-09T01:53:46.477Z,65.45
2017-05-09T01:54:12.569Z,65.67
2017-05-09T01:54:38.680Z,65.73
2017-05-09T01:55:04.785Z,65.35
2017-05-09T01:55:30.884Z,65.86
2017-05-09T01:55:56.973Z,65.83
2017-05-09T01:56:23.071Z,65.83
2017-05-09T01:56:49.209Z,65.83
2017-05-09T01:57:15.310Z,65.64
2017-05-09T01:57:41.433Z,65.35
2017-05-09T01:58:07.593Z,65.54
2017-05-09T01:58:33.734Z,65.54
2017-05-09T01:58:59.902Z,65.54
2017-05-09T01:59:26.035Z,65.35
2017-05-09T01:59:52.177Z,66.02
2017-05-09T02:00:18.289Z,65.64
2017-05-09T02:00:44.418Z,65.54
2017-05-09T02:01:10.517Z,65.64
2017-05-09T02:01:36.621Z,65.92
2017-05-09T02:02:02.710Z,65.54
2017-05-09T02:02:28.827Z,65.77
2017-05-09T02:02:54.960Z,65.92
2017-05-09T02:03:21.051Z,65.95
2017-05-09T02:03:47.164Z,66.02
2017-05-09T02:04:13.297Z,65.73
2017-05-09T02:04:39.422Z,66.02
2017-05-09T02:05:05.555Z,65.92
2017-05-09T02:05:31.658Z,66.11
2017-05-09T02:05:57.758Z,65.92
2017-05-09T02:06:23.883Z,66.02
2017-05-09T02:06:49.976Z,65.92
2017-05-09T02:07:16.085Z,66.2
2017-05-09T02:07:42.191Z,66.59
2017-05-09T02:08:08.313Z,66.3
2017-05-09T02:08:34.447Z,66.68
2017-05-09T02:09:00.578Z,66.59
2017-05-09T02:09:26.730Z,66.3
2017-05-09T02:09:52.818Z,66.59
2017-05-09T02:10:18.943Z,66.3
2017-05-09T02:10:45.076Z,66.59
2017-05-09T02:11:11.213Z,66.59
2017-05-09T02:11:37.311Z,66.59
2017-05-09T02:12:03.404Z,66.59
2017-05-09T02:12:29.508Z,66.59
2017-05-09T02:12:55.663Z,66.59
2017-05-09T02:13:21.778Z,66.59
2017-05-09T02:13:47.906Z,66.49
2017-05-09T02:14:14.010Z,66.39
2017-05-09T02:14:40.172Z,66.59
2017-05-09T02:15:06.321Z,66.49
2017-05-09T02:15:32.453Z,67.44
2017-05-09T02:15:58.543Z,66.78
2017-05-09T02:16:24.662Z,66.2
2017-05-09T02:16:50.768Z,66.59
2017-05-09T02:17:16.887Z,66.97
2017-05-09T02:17:42.993Z,66.78
2017-05-09T02:18:09.129Z,66.59
2017-05-09T02:18:35.251Z,66.97
2017-05-09T02:19:01.411Z,67.07
2017-05-09T02:19:27.498Z,67.44
2017-05-09T02:19:53.593Z,66.97
2017-05-09T02:20:19.725Z,67.16
2017-05-09T02:20:45.815Z,67.07
2017-05-09T02:21:11.900Z,66.97
2017-05-09T02:21:38.037Z,67.07
2017-05-09T02:22:04.134Z,67.44
2017-05-09T02:22:30.296Z,67.25
2017-05-09T02:22:56.432Z,67.63
2017-05-09T02:23:22.575Z,67.07
2017-05-09T02:23:48.706Z,67.25
2017-05-09T02:24:14.901Z,67.07
2017-05-09T02:24:41.040Z,67.25
2017-05-09T02:25:07.204Z,67.63
2017-05-09T02:25:33.328Z,67.63
2017-05-09T02:25:59.467Z,67.44
2017-05-09T02:26:25.598Z,67.92
2017-05-09T02:26:51.725Z,67.25
2017-05-09T02:27:17.867Z,68.01
2017-05-09T02:27:43.964Z,67.82
2017-05-09T02:28:10.123Z,68.11
2017-05-09T02:28:36.263Z,67.82
2017-05-09T02:29:02.383Z,68.01
2017-05-09T02:29:28.494Z,68.01
2017-05-09T02:29:54.599Z,68.21
2017-05-09T02:30:20.698Z,67.82
2017-05-09T02:30:47.088Z,67.82
2017-05-09T02:31:13.214Z,67.92
2017-05-09T02:31:39.320Z,67.82
2017-05-09T02:32:05.429Z,67.88
2017-05-09T02:32:31.527Z,68.01
2017-05-09T02:32:57.658Z,67.82
2017-05-09T02:33:23.773Z,68.01
2017-05-09T02:33:49.937Z,67.92
2017-05-09T02:34:16.033Z,67.82
2017-05-09T02:34:42.131Z,67.63
2017-05-09T02:35:08.261Z,67.35
2017-05-09T02:35:34.346Z,67.82
2017-05-09T02:36:00.468Z,67.63
2017-05-09T02:36:26.598Z,68.11
2017-05-09T02:36:52.686Z,68.11
2017-05-09T02:37:18.782Z,67.82
2017-05-09T02:37:44.968Z,68.3
2017-05-09T02:38:11.086Z,68.21
2017-05-09T02:38:37.197Z,67.92
2017-05-09T02:39:03.306Z,67.92
2017-05-09T02:39:29.401Z,68.01
2017-05-09T02:39:55.488Z,67.73
2017-05-09T02:40:21.591Z,67.92
2017-05-09T02:40:47.716Z,67.92
2017-05-09T02:41:13.803Z,67.82
2017-05-09T02:41:39.907Z,68.21
2017-05-09T02:42:06.041Z,68.21
2017-05-09T02:42:32.153Z,68.3
2017-05-09T02:42:58.302Z,68.21
2017-05-09T02:43:24.460Z,68.01
2017-05-09T02:43:50.572Z,68.11
2017-05-09T02:44:16.693Z,68.01
2017-05-09T02:44:42.854Z,67.73
2017-05-09T02:45:08.971Z,68.01
2017-05-09T02:45:35.103Z,68.01
2017-05-09T02:46:01.212Z,67.92
2017-05-09T02:46:27.309Z,68.11
2017-05-09T02:46:53.410Z,67.92
2017-05-09T02:47:19.501Z,68.21
2017-05-09T02:47:45.620Z,68.11
2017-05-09T02:48:11.753Z,67.92
2017-05-09T02:48:37.924Z,67.92
2017-05-09T02:49:04.037Z,68.27
2017-05-09T02:49:30.170Z,68.11
2017-05-09T02:49:56.318Z,68.59
2017-05-09T02:50:22.428Z,68.68
2017-05-09T02:50:48.586Z,68.49
2017-05-09T02:51:14.706Z,68.4
2017-05-09T02:51:40.864Z,68.84
2017-05-09T02:52:06.983Z,68.87
2017-05-09T02:52:33.071Z,68.65
2017-05-09T02:52:59.206Z,68.59
2017-05-09T02:53:25.301Z,68.55
2017-05-09T02:53:51.436Z,68.55
2017-05-09T02:54:17.541Z,68.68
2017-05-09T02:54:43.666Z,68.59
2017-05-09T02:55:09.802Z,68.65
2017-05-09T02:55:35.904Z,68.59
2017-05-09T02:56:02.010Z,68.46
2017-05-09T02:56:28.127Z,68.59
2017-05-09T02:56:54.248Z,68.46
2017-05-09T02:57:20.335Z,68.55
2017-05-09T02:57:46.464Z,68.36
2017-05-09T02:58:12.588Z,68.55
2017-05-09T02:58:38.699Z,68.59
2017-05-09T02:59:04.859Z,68.77
2017-05-09T02:59:31.016Z,68.55
2017-05-09T02:59:57.149Z,68.36
2017-05-09T03:00:23.271Z,68.46
2017-05-09T03:00:49.474Z,68.59
2017-05-09T03:01:15.565Z,68.65
2017-05-09T03:01:41.682Z,68.49
2017-05-09T03:02:07.777Z,68.84
2017-05-09T03:02:33.879Z,68.55
2017-05-09T03:03:00.034Z,68.77
2017-05-09T03:03:26.120Z,68.84
2017-05-09T03:03:52.245Z,68.46
2017-05-09T03:04:18.350Z,68.55
2017-05-09T03:04:44.526Z,68.46
2017-05-09T03:05:10.648Z,68.46
2017-05-09T03:05:36.751Z,68.65
2017-05-09T03:06:02.870Z,68.46
2017-05-09T03:06:28.958Z,68.65
2017-05-09T03:06:55.062Z,68.65
2017-05-09T03:07:21.181Z,68.55
2017-05-09T03:07:47.337Z,68.55
2017-05-09T03:08:13.477Z,68.55
2017-05-09T03:08:39.595Z,68.74
2017-05-09T03:09:05.784Z,68.46
2017-05-09T03:09:31.901Z,68.46
2017-05-09T03:09:58.014Z,68.55
2017-05-09T03:10:24.146Z,68.27
2017-05-09T03:10:50.264Z,68.65
2017-05-09T03:11:16.375Z,68.65
2017-05-09T03:11:42.529Z,68.74
2017-05-09T03:12:08.628Z,68.84
2017-05-09T03:12:34.740Z,68.36
2017-05-09T03:13:00.944Z,68.36
2017-05-09T03:13:27.058Z,68.84
2017-05-09T03:13:53.243Z,68.87
2017-05-09T03:14:19.419Z,68.84
2017-05-09T03:14:45.508Z,68.65
2017-05-09T03:15:11.640Z,68.74
2017-05-09T03:15:37.791Z,69.02
2017-05-09T03:16:03.876Z,68.74
2017-05-09T03:16:30.001Z,68.93
2017-05-09T03:16:56.102Z,68.65
2017-05-09T03:17:22.188Z,68.84
2017-05-09T03:17:48.286Z,69.02
2017-05-09T03:18:14.443Z,68.84
2017-05-09T03:18:40.557Z,68.84
2017-05-09T03:19:06.687Z,68.84
2017-05-09T03:19:32.823Z,68.93
2017-05-09T03:19:58.980Z,68.93
2017-05-09T03:20:25.085Z,68.93
2017-05-09T03:20:51.172Z,68.65
2017-05-09T03:21:17.270Z,68.93
2017-05-09T03:21:43.375Z,68.74
2017-05-09T03:22:09.462Z,68.74
2017-05-09T03:22:35.554Z,69.41
2017-05-09T03:23:01.716Z,68.93
2017-05-09T03:23:27.829Z,69.69
2017-05-09T03:23:54.016Z,69.31
2017-05-09T03:24:20.146Z,69.5
2017-05-09T03:24:46.241Z,69.41
2017-05-09T03:25:12.354Z,69.69
2017-05-09T03:25:38.484Z,69.5
2017-05-09T03:26:04.606Z,69.5
2017-05-09T03:26:30.692Z,69.5
2017-05-09T03:26:56.843Z,69.31
2017-05-09T03:27:23.001Z,69.6
2017-05-09T03:27:49.114Z,69.88
2017-05-09T03:28:15.238Z,69.88
2017-05-09T03:28:41.343Z,69.6
2017-05-09T03:29:07.508Z,69.21
2017-05-09T03:29:33.651Z,69.79
2017-05-09T03:29:59.771Z,69.69
2017-05-09T03:30:25.899Z,69.31
2017-05-09T03:30:52.001Z,69.5
2017-05-09T03:31:18.460Z,69.6
2017-05-09T03:31:44.585Z,69.69
2017-05-09T03:32:10.740Z,69.5
2017-05-09T03:32:36.878Z,69.6
2017-05-09T03:33:03.045Z,69.41
2017-05-09T03:33:29.177Z,69.41
2017-05-09T03:33:55.294Z,69.79
2017-05-09T03:34:21.457Z,69.79
2017-05-09T03:34:47.588Z,69.6
2017-05-09T03:35:13.681Z,69.6
2017-05-09T03:35:39.833Z,69.69
2017-05-09T03:36:05.924Z,69.5
2017-05-09T03:36:32.039Z,69.41
2017-05-09T03:36:58.145Z,69.6
2017-05-09T03:37:24.287Z,69.79
2017-05-09T03:37:50.400Z,69.88
2017-05-09T03:38:16.531Z,70.36
2017-05-09T03:38:42.653Z,70.36
2017-05-09T03:39:08.768Z,70.07
2017-05-09T03:39:34.900Z,70.17
2017-05-09T03:40:01.025Z,70.17
2017-05-09T03:40:27.137Z,69.98
2017-05-09T03:40:53.264Z,70.07
2017-05-09T03:41:19.378Z,70.26
2017-05-09T03:41:45.484Z,70.17
2017-05-09T03:42:11.579Z,70.36
2017-05-09T03:42:37.690Z,70.26
2017-05-09T03:43:03.878Z,70.26
2017-05-09T03:43:30.000Z,70.64
2017-05-09T03:43:56.112Z,70.64
2017-05-09T03:44:22.237Z,70.64
2017-05-09T03:44:48.367Z,71.41
2017-05-09T03:45:14.477Z,70.93
2017-05-09T03:45:40.572Z,71.12
2017-05-09T03:46:06.735Z,71.02
2017-05-09T03:46:32.847Z,70.93
2017-05-09T03:46:58.975Z,70.83
2017-05-09T03:47:25.063Z,71.18
2017-05-09T03:47:51.189Z,70.93
2017-05-09T03:48:17.294Z,70.93
2017-05-09T03:48:43.433Z,70.93
2017-05-09T03:49:09.576Z,70.83
2017-05-09T03:49:35.748Z,70.64
2017-05-09T03:50:01.887Z,71.12
2017-05-09T03:50:28.008Z,71.22
2017-05-09T03:50:54.110Z,71.22
2017-05-09T03:51:20.203Z,70.93
2017-05-09T03:51:46.338Z,70.74
2017-05-09T03:52:12.439Z,70.83
2017-05-09T03:52:38.564Z,71.02
2017-05-09T03:53:04.723Z,70.99
2017-05-09T03:53:30.836Z,71.27
2017-05-09T03:53:56.955Z,71.31
2017-05-09T03:54:23.115Z,71.22
2017-05-09T03:54:49.234Z,71.37
2017-05-09T03:55:15.368Z,71.22
2017-05-09T03:55:41.476Z,71.18
2017-05-09T03:56:07.599Z,71.08
2017-05-09T03:56:33.686Z,71.22
2017-05-09T03:56:59.792Z,70.99
2017-05-09T03:57:25.887Z,71.31
2017-05-09T03:57:51.986Z,71.37
2017-05-09T03:58:18.130Z,70.89
2017-05-09T03:58:44.313Z,70.99
2017-05-09T03:59:10.421Z,70.83
2017-05-09T03:59:36.571Z,71.02
2017-05-09T04:00:02.709Z,70.93
2017-05-09T04:00:28.814Z,71.12
2017-05-09T04:00:54.910Z,71.41
2017-05-09T04:01:21.023Z,71.08
2017-05-09T04:01:47.448Z,71.12
2017-05-09T04:02:13.636Z,71.22
2017-05-09T04:02:39.743Z,71.41
2017-05-09T04:03:05.891Z,70.93
2017-05-09T04:03:32.006Z,71.41
2017-05-09T04:03:58.133Z,71.22
2017-05-09T04:04:24.314Z,71.41
2017-05-09T04:04:50.400Z,71.31
2017-05-09T04:05:16.527Z,71.22
2017-05-09T04:05:42.630Z,71.02
2017-05-09T04:06:08.741Z,71.41
2017-05-09T04:06:34.859Z,71.12
2017-05-09T04:07:01.015Z,71.02
2017-05-09T04:07:27.103Z,70.83
2017-05-09T04:07:53.198Z,71.27
2017-05-09T04:08:19.382Z,71.41
2017-05-09T04:08:45.474Z,71.31
2017-05-09T04:09:11.560Z,71.41
2017-05-09T04:09:37.667Z,71.66
2017-05-09T04:10:03.764Z,71.69
2017-05-09T04:10:29.853Z,71.59
2017-05-09T04:10:55.955Z,71.84
2017-05-09T04:11:22.052Z,71.46
2017-05-09T04:11:48.165Z,72.03
2017-05-09T04:12:14.267Z,71.88
2017-05-09T04:12:40.426Z,71.97
2017-05-09T04:13:06.535Z,71.97
2017-05-09T04:13:32.659Z,72.22
2017-05-09T04:13:58.821Z,71.66
2017-05-09T04:14:24.909Z,71.97
2017-05-09T04:14:51.011Z,71.22
2017-05-09T04:15:17.121Z,71.46
2017-05-09T04:15:43.222Z,71.78
2017-05-09T04:16:09.326Z,71.66
2017-05-09T04:16:35.440Z,71.97
2017-05-09T04:17:01.559Z,71.66
2017-05-09T04:17:27.663Z,71.37
2017-05-09T04:17:53.753Z,72.22
2017-05-09T04:18:19.896Z,71.69
2017-05-09T04:18:46.000Z,72.32
2017-05-09T04:19:12.092Z,72.03
2017-05-09T04:19:38.233Z,71.94
2017-05-09T04:20:04.416Z,71.94
2017-05-09T04:20:30.515Z,71.84
2017-05-09T04:20:56.645Z,71.66
2017-05-09T04:21:22.733Z,72.22
2017-05-09T04:21:48.828Z,72.13
2017-05-09T04:22:14.956Z,72.35
2017-05-09T04:22:41.046Z,72.41
2017-05-09T04:23:07.157Z,72.41
2017-05-09T04:23:33.321Z,72.03
2017-05-09T04:23:59.493Z,72.32
2017-05-09T04:24:25.606Z,72.03
2017-05-09T04:24:51.710Z,72.22
2017-05-09T04:25:17.834Z,71.94
2017-05-09T04:25:43.930Z,72.26
2017-05-09T04:26:10.048Z,72.32
2017-05-09T04:26:36.135Z,72.03
2017-05-09T04:27:02.320Z,71.41
2017-05-09T04:27:28.418Z,71.88
2017-05-09T04:27:54.526Z,71.97
2017-05-09T04:28:20.658Z,72.07
2017-05-09T04:28:46.782Z,72.07
2017-05-09T04:29:12.896Z,72.07
2017-05-09T04:29:39.065Z,72.26
2017-05-09T04:30:05.209Z,71.88
2017-05-09T04:30:31.294Z,71.78
2017-05-09T04:30:57.415Z,71.5
2017-05-09T04:31:23.529Z,72.07
2017-05-09T04:31:49.660Z,71.69
2017-05-09T04:32:15.784Z,71.69
2017-05-09T04:32:41.925Z,71.59
2017-05-09T04:33:08.050Z,71.97
2017-05-09T04:33:34.180Z,72.07
2017-05-09T04:34:00.317Z,71.88
2017-05-09T04:34:26.412Z,71.88
2017-05-09T04:34:52.544Z,71.88
2017-05-09T04:35:18.634Z,71.69
2017-05-09T04:35:44.729Z,71.69
2017-05-09T04:36:10.861Z,71.97
2017-05-09T04:36:36.953Z,71.59
2017-05-09T04:37:03.056Z,72.07
2017-05-09T04:37:29.142Z,71.78
2017-05-09T04:37:55.242Z,71.88
2017-05-09T04:38:21.429Z,71.97
2017-05-09T04:38:47.538Z,71.69
2017-05-09T04:39:13.659Z,71.41
2017-05-09T04:39:39.846Z,71.41
2017-05-09T04:40:05.938Z,71.78
2017-05-09T04:40:32.077Z,71.78
2017-05-09T04:40:58.239Z,71.78
2017-05-09T04:41:24.333Z,71.69
2017-05-09T04:41:50.421Z,71.41
2017-05-09T04:42:16.550Z,71.41
2017-05-09T04:42:42.641Z,71.41
2017-05-09T04:43:08.830Z,71.41
2017-05-09T04:43:34.923Z,71.12
2017-05-09T04:44:01.056Z,71.12
2017-05-09T04:44:27.194Z,71.02
2017-05-09T04:44:53.318Z,71.31
2017-05-09T04:45:19.402Z,71.41
2017-05-09T04:45:45.532Z,71.88
2017-05-09T04:46:11.656Z,71.41
2017-05-09T04:46:37.742Z,71.02
2017-05-09T04:47:03.841Z,71.22
2017-05-09T04:47:29.971Z,70.93
2017-05-09T04:47:56.114Z,71.02
2017-05-09T04:48:22.261Z,71.22
2017-05-09T04:48:48.375Z,71.22
2017-05-09T04:49:14.566Z,71.12
2017-05-09T04:49:40.690Z,71.12
2017-05-09T04:50:06.829Z,71.22
2017-05-09T04:50:32.928Z,71.22
2017-05-09T04:50:59.032Z,71.12
2017-05-09T04:51:25.140Z,71.22
2017-05-09T04:51:51.238Z,71.12
2017-05-09T04:52:17.342Z,71.12
2017-05-09T04:52:43.429Z,71.12
2017-05-09T04:53:09.572Z,70.93
2017-05-09T04:53:35.731Z,71.12
2017-05-09T04:54:01.900Z,71.31
2017-05-09T04:54:28.035Z,71.02
2017-05-09T04:54:54.144Z,71.41
2017-05-09T04:55:20.264Z,71.31
2017-05-09T04:55:46.353Z,71.02
2017-05-09T04:56:12.532Z,71.12
2017-05-09T04:56:38.657Z,70.93
2017-05-09T04:57:04.769Z,71.22
2017-05-09T04:57:30.871Z,70.93
2017-05-09T04:57:56.974Z,70.93
2017-05-09T04:58:23.106Z,70.83
2017-05-09T04:58:49.254Z,70.54
2017-05-09T04:59:15.420Z,70.54
2017-05-09T04:59:41.551Z,70.45
2017-05-09T05:00:07.678Z,70.64
2017-05-09T05:00:33.839Z,70.83
2017-05-09T05:00:59.964Z,70.83
2017-05-09T05:01:26.121Z,70.83
2017-05-09T05:01:52.258Z,70.74
2017-05-09T05:02:18.382Z,70.83
2017-05-09T05:02:44.510Z,70.26
2017-05-09T05:03:10.599Z,70.77
2017-05-09T05:03:36.716Z,70.64
2017-05-09T05:04:02.849Z,70.39
2017-05-09T05:04:28.966Z,70.83
2017-05-09T05:04:55.127Z,70.45
2017-05-09T05:05:21.238Z,70.17
2017-05-09T05:05:47.360Z,70.26
2017-05-09T05:06:13.464Z,70.2
2017-05-09T05:06:39.575Z,70.39
2017-05-09T05:07:05.673Z,70.1
2017-05-09T05:07:31.778Z,70.1
2017-05-09T05:07:57.893Z,69.92
2017-05-09T05:08:24.031Z,70.2
2017-05-09T05:08:50.160Z,70.17
2017-05-09T05:09:16.335Z,70.36
2017-05-09T05:09:42.468Z,70.45
2017-05-09T05:10:08.573Z,70.39
2017-05-09T05:10:34.663Z,70.3
2017-05-09T05:11:00.796Z,70.2
2017-05-09T05:11:26.938Z,70.39
2017-05-09T05:11:53.051Z,70.39
2017-05-09T05:12:19.185Z,70.39
2017-05-09T05:12:45.305Z,70.49
2017-05-09T05:13:11.418Z,70.2
2017-05-09T05:13:37.578Z,70.39
2017-05-09T05:14:03.759Z,70.39
2017-05-09T05:14:29.847Z,70.49
2017-05-09T05:14:55.974Z,70.1
2017-05-09T05:15:22.104Z,70.2
2017-05-09T05:15:48.193Z,70.39
2017-05-09T05:16:14.289Z,70.2
2017-05-09T05:16:40.459Z,69.73
2017-05-09T05:17:06.617Z,69.73
2017-05-09T05:17:32.714Z,69.63
2017-05-09T05:17:58.800Z,69.82
2017-05-09T05:18:24.924Z,69.82
2017-05-09T05:18:51.056Z,69.44
2017-05-09T05:19:17.140Z,69.82
2017-05-09T05:19:43.238Z,69.63
2017-05-09T05:20:09.343Z,69.44
2017-05-09T05:20:35.453Z,69.73
2017-05-09T05:21:01.548Z,70.1
2017-05-09T05:21:27.643Z,70.39
2017-05-09T05:21:53.742Z,69.63
2017-05-09T05:22:19.876Z,69.44
2017-05-09T05:22:46.010Z,69.82
2017-05-09T05:23:12.134Z,69.63
2017-05-09T05:23:38.238Z,69.82
2017-05-09T05:24:04.353Z,69.54
2017-05-09T05:24:30.446Z,69.63
2017-05-09T05:24:56.607Z,69.54
2017-05-09T05:25:22.697Z,69.44
2017-05-09T05:25:48.809Z,69.54
2017-05-09T05:26:14.944Z,69.54
2017-05-09T05:26:41.065Z,69.63
2017-05-09T05:27:07.220Z,69.82
2017-05-09T05:27:33.335Z,69.92
2017-05-09T05:27:59.504Z,69.63
2017-05-09T05:28:25.636Z,69.82
2017-05-09T05:28:51.781Z,69.82
2017-05-09T05:29:17.894Z,69.92
2017-05-09T05:29:44.026Z,69.82
2017-05-09T05:30:10.174Z,69.82
2017-05-09T05:30:36.262Z,69.82
2017-05-09T05:31:02.417Z,69.54
2017-05-09T05:31:28.542Z,69.44
2017-05-09T05:31:54.628Z,70.01
2017-05-09T05:32:20.808Z,69.63
2017-05-09T05:32:46.971Z,69.82
2017-05-09T05:33:13.131Z,70.01
2017-05-09T05:33:39.251Z,69.15
2017-05-09T05:34:05.364Z,69.54
2017-05-09T05:34:31.575Z,69.54
2017-05-09T05:34:57.728Z,69.44
2017-05-09T05:35:23.842Z,69.63
2017-05-09T05:35:49.942Z,69.25
2017-05-09T05:36:16.047Z,69.35
2017-05-09T05:36:42.181Z,69.54
2017-05-09T05:37:08.308Z,69.44
2017-05-09T05:37:34.439Z,69.44